Time;durP1;ratioP1;P1;durP2;ratioP2;P2;SDS_P1;SDS_P2;PMS_P1;PMS_P2;Temp;Humidity;BMP_temperature;BMP_pressure;BME280_temperature;BME280_humidity;BME280_pressure;Samples;Min_cycle;Max_cycle;Signal;HPM_P1;HPM_P2
2023/11/21 00:02:28;;;;;;;4.75;2.60;;;11.00;99.90;;;;;;5049541;28;20138;-79
2023/11/21 00:04:55;;;;;;;10.70;2.85;;;11.00;99.90;;;;;;5060611;28;20496;-80
2023/11/21 00:07:21;;;;;;;5.07;2.78;;;11.00;99.90;;;;;;5066963;28;20119;-78
2023/11/21 00:09:48;;;;;;;3.00;2.30;;;11.00;99.90;;;;;;5037847;28;20412;-78
2023/11/21 00:12:15;;;;;;;3.95;2.67;;;11.00;99.90;;;;;;5057308;28;20041;-79
2023/11/21 00:14:42;;;;;;;4.65;2.80;;;11.00;99.90;;;;;;5050333;28;20079;-78
2023/11/21 00:17:08;;;;;;;4.68;3.22;;;11.00;99.90;;;;;;5064651;28;20563;-77
2023/11/21 00:19:35;;;;;;;6.88;2.95;;;11.00;99.90;;;;;;5067651;28;20049;-78
2023/11/21 00:22:02;;;;;;;4.43;2.83;;;11.00;99.90;;;;;;5046602;28;20042;-78
2023/11/21 00:24:29;;;;;;;7.05;3.85;;;11.00;99.90;;;;;;5067739;28;20049;-76
2023/11/21 00:26:56;;;;;;;3.85;2.80;;;11.00;99.90;;;;;;5046404;28;20064;-77
2023/11/21 00:29:23;;;;;;;4.03;3.35;;;11.00;99.90;;;;;;5064192;28;20090;-78
2023/11/21 00:31:49;;;;;;;7.07;2.90;;;11.00;99.90;;;;;;5070951;28;20094;-78
2023/11/21 00:34:16;;;;;;;7.82;3.80;;;11.00;99.90;;;;;;5067667;28;20691;-78
2023/11/21 00:36:43;;;;;;;5.60;3.08;;;11.00;99.90;;;;;;5065338;28;20096;-77
2023/11/21 00:39:11;;;;;;;5.13;3.20;;;11.00;99.90;;;;;;5068389;28;20044;-78
2023/11/21 00:41:38;;;;;;;4.85;3.28;;;11.00;99.90;;;;;;5068098;28;20048;-78
2023/11/21 00:44:06;;;;;;;4.95;3.40;;;11.00;99.90;;;;;;5063194;28;20288;-79
2023/11/21 00:46:33;;;;;;;6.35;3.42;;;11.00;99.90;;;;;;5049005;28;20049;-78
2023/11/21 00:49:00;;;;;;;4.35;3.47;;;11.00;99.90;;;;;;5067287;28;20099;-80
2023/11/21 00:51:27;;;;;;;4.65;3.30;;;10.90;99.90;;;;;;5063756;28;20044;-77
2023/11/21 00:53:53;;;;;;;6.30;3.60;;;11.00;99.90;;;;;;5048981;28;20492;-77
2023/11/21 00:56:20;;;;;;;8.48;3.95;;;11.00;99.90;;;;;;5067005;28;20111;-77
2023/11/21 00:58:49;;;;;;;7.00;4.32;;;11.00;99.90;;;;;;5063858;28;20056;-77
2023/11/21 01:01:17;;;;;;;6.72;4.15;;;11.00;99.90;;;;;;5066391;28;20045;-78
2023/11/21 01:03:47;;;;;;;5.70;4.25;;;11.00;99.90;;;;;;5053520;28;20084;-78
2023/11/21 01:06:14;;;;;;;4.38;3.58;;;11.00;99.90;;;;;;5049563;28;20459;-77
2023/11/21 01:08:43;;;;;;;8.55;5.63;;;11.00;99.90;;;;;;5067131;28;20127;-78
2023/11/21 01:11:12;;;;;;;5.03;4.10;;;11.00;99.90;;;;;;5050318;28;20045;-78
2023/11/21 01:13:39;;;;;;;7.25;3.92;;;11.00;99.90;;;;;;5050501;28;20487;-79
2023/11/21 01:16:07;;;;;;;4.70;3.72;;;11.00;99.90;;;;;;5050127;28;20491;-78
2023/11/21 01:18:34;;;;;;;3.90;3.50;;;11.10;99.90;;;;;;5069576;28;20083;-77
2023/11/21 01:21:01;;;;;;;5.78;4.68;;;11.10;99.90;;;;;;5050381;28;20064;-78
2023/11/21 01:23:28;;;;;;;4.95;3.63;;;11.10;99.90;;;;;;5068113;28;20403;-78
2023/11/21 01:25:56;;;;;;;5.53;3.85;;;11.10;99.90;;;;;;5070619;28;20577;-78
2023/11/21 01:28:22;;;;;;;5.45;4.13;;;11.10;99.90;;;;;;5068896;28;20052;-78
2023/11/21 01:30:49;;;;;;;5.57;3.55;;;11.10;99.90;;;;;;5066748;28;20408;-78
2023/11/21 01:33:16;;;;;;;5.13;3.97;;;11.10;99.90;;;;;;5054047;28;20053;-78
2023/11/21 01:35:43;;;;;;;4.63;3.88;;;11.20;99.90;;;;;;5070329;28;20084;-79
2023/11/21 01:38:10;;;;;;;4.47;3.78;;;11.10;99.90;;;;;;5070495;28;20102;-79
2023/11/21 01:40:37;;;;;;;4.57;3.58;;;11.10;99.90;;;;;;5067105;28;20094;-79
2023/11/21 01:43:03;;;;;;;4.40;3.80;;;11.10;99.90;;;;;;5068536;28;20348;-79
2023/11/21 01:45:33;;;;;;;3.85;3.00;;;11.00;99.90;;;;;;5066000;28;20045;-79
2023/11/21 01:48:01;;;;;;;3.10;2.80;;;11.10;99.90;;;;;;5063278;28;20044;-79
2023/11/21 01:50:28;;;;;;;3.15;2.60;;;11.10;99.90;;;;;;5066666;28;20220;-79
2023/11/21 01:52:55;;;;;;;9.38;2.85;;;11.00;99.90;;;;;;4747072;28;10001082;-79
2023/11/21 01:55:22;;;;;;;2.45;2.13;;;11.10;99.90;;;;;;5047560;28;20316;-78
2023/11/21 01:57:55;;;;;;;3.17;2.15;;;11.10;99.90;;;;;;5070259;28;20040;-78
2023/11/21 02:00:23;;;;;;;4.68;2.10;;;11.10;99.90;;;;;;5049095;28;20114;-79
2023/11/21 02:02:51;;;;;;;2.28;2.03;;;11.10;99.90;;;;;;5069948;28;20066;-79
2023/11/21 02:05:19;;;;;;;3.63;2.20;;;11.10;99.90;;;;;;5067013;28;20080;-79
2023/11/21 02:07:47;;;;;;;3.97;1.85;;;11.10;99.90;;;;;;5070067;28;20068;-77
2023/11/21 02:10:15;;;;;;;2.30;1.65;;;11.20;99.90;;;;;;5052988;28;20219;-78
2023/11/21 02:12:42;;;;;;;2.75;1.77;;;11.20;99.90;;;;;;5052378;28;20049;-76
2023/11/21 02:15:14;;;;;;;3.42;1.63;;;11.20;99.90;;;;;;5048869;28;20371;-79
2023/11/21 02:17:43;;;;;;;2.15;1.15;;;11.20;99.90;;;;;;5052751;28;20123;-79
2023/11/21 02:20:15;;;;;;;1.83;1.23;;;11.20;99.90;;;;;;5052539;28;20048;-78
2023/11/21 02:22:44;;;;;;;2.60;1.30;;;11.20;99.90;;;;;;5069927;28;20110;-78
2023/11/21 02:25:11;;;;;;;3.90;1.20;;;11.20;99.90;;;;;;5034687;28;20102;-79
2023/11/21 02:27:38;;;;;;;1.00;0.90;;;11.20;99.90;;;;;;5066350;28;20096;-79
2023/11/21 02:30:07;;;;;;;1.95;1.05;;;11.20;99.90;;;;;;5068072;28;20077;-79
2023/11/21 02:32:34;;;;;;;2.13;1.17;;;11.20;99.90;;;;;;5069514;28;20458;-79
2023/11/21 02:35:15;;;;;;;2.03;1.33;;;11.30;99.90;;;;;;5067736;28;20397;-79
2023/11/21 02:37:42;;;;;;;2.22;1.30;;;11.20;99.90;;;;;;5068821;28;20036;-79
2023/11/21 02:40:10;;;;;;;3.20;1.27;;;11.20;99.90;;;;;;5049203;28;20041;-78
2023/11/21 02:42:37;;;;;;;2.35;1.42;;;11.20;99.90;;;;;;5069920;28;20107;-79
2023/11/21 02:45:05;;;;;;;1.75;1.10;;;11.30;99.90;;;;;;5057906;28;20561;-80
2023/11/21 02:47:32;;;;;;;4.30;1.38;;;11.30;99.90;;;;;;5069006;28;20041;-78
2023/11/21 02:49:59;;;;;;;1.52;1.15;;;11.20;99.90;;;;;;5051614;28;20133;-79
2023/11/21 02:52:25;;;;;;;1.35;0.90;;;11.30;99.90;;;;;;5065847;28;20048;-79
2023/11/21 02:54:53;;;;;;;3.10;1.30;;;11.20;99.90;;;;;;5065403;28;20056;-79
2023/11/21 02:57:20;;;;;;;2.88;1.98;;;11.20;99.90;;;;;;5066088;28;20040;-78
2023/11/21 02:59:46;;;;;;;2.58;1.98;;;11.20;99.90;;;;;;5065726;28;20132;-79
2023/11/21 03:02:13;;;;;;;2.83;2.25;;;11.10;99.90;;;;;;5061892;28;20079;-78
2023/11/21 03:04:40;;;;;;;2.85;1.70;;;11.10;99.90;;;;;;5068865;28;20052;-78
2023/11/21 03:07:07;;;;;;;4.65;2.67;;;11.10;99.90;;;;;;5066996;28;20057;-78
2023/11/21 03:09:34;;;;;;;4.13;3.15;;;11.00;99.90;;;;;;5067513;28;20048;-78
2023/11/21 03:12:00;;;;;;;5.28;2.47;;;11.00;99.90;;;;;;5065714;28;20492;-78
2023/11/21 03:14:27;;;;;;;4.20;3.15;;;10.90;99.90;;;;;;5067162;28;20137;-78
2023/11/21 03:16:54;;;;;;;7.38;2.95;;;10.90;99.90;;;;;;5065958;28;20098;-79
2023/11/21 03:19:21;;;;;;;4.40;3.30;;;10.80;99.90;;;;;;5058806;28;20055;-78
2023/11/21 03:21:48;;;;;;;3.28;2.90;;;10.90;99.90;;;;;;5067931;28;20051;-78
2023/11/21 03:24:17;;;;;;;4.78;3.50;;;10.90;99.90;;;;;;5063522;28;20048;-79
2023/11/21 03:26:46;;;;;;;4.70;2.83;;;10.80;99.90;;;;;;5063785;28;20045;-78
2023/11/21 03:29:13;;;;;;;3.92;2.72;;;10.80;99.90;;;;;;5067714;28;20098;-78
2023/11/21 03:31:40;;;;;;;9.00;3.40;;;10.90;99.90;;;;;;5050654;28;20094;-78
2023/11/21 03:34:15;;;;;;;3.50;2.70;;;10.90;99.90;;;;;;5067334;28;20076;-78
2023/11/21 03:36:43;;;;;;;4.90;3.53;;;10.90;99.90;;;;;;5047947;28;20052;-79
2023/11/21 03:39:09;;;;;;;3.67;2.90;;;10.90;99.90;;;;;;5068047;28;20044;-78
2023/11/21 03:41:36;;;;;;;4.50;2.50;;;11.00;99.90;;;;;;5068079;28;20044;-78
2023/11/21 03:44:03;;;;;;;3.25;2.47;;;10.90;99.90;;;;;;5064918;28;20083;-78
2023/11/21 03:46:30;;;;;;;2.90;2.17;;;10.90;99.90;;;;;;5061581;28;20052;-78
2023/11/21 03:48:57;;;;;;;3.78;2.38;;;10.90;99.90;;;;;;5065512;28;20052;-78
2023/11/21 03:51:23;;;;;;;5.53;2.72;;;10.80;99.90;;;;;;5065740;28;20045;-78
2023/11/21 03:53:50;;;;;;;2.55;1.77;;;10.80;99.90;;;;;;5066627;28;20052;-77
2023/11/21 03:56:17;;;;;;;3.85;1.95;;;10.80;99.90;;;;;;5064810;28;20041;-79
2023/11/21 03:58:44;;;;;;;3.58;2.25;;;10.90;99.90;;;;;;5064310;28;20491;-78
2023/11/21 04:01:10;;;;;;;2.20;1.65;;;10.90;99.90;;;;;;5067347;28;20135;-78
2023/11/21 04:03:38;;;;;;;3.10;1.80;;;10.90;99.90;;;;;;5048487;28;20048;-78
2023/11/21 04:06:06;;;;;;;4.72;1.88;;;10.90;99.90;;;;;;5062018;28;20040;-79
2023/11/21 04:08:33;;;;;;;2.40;1.40;;;10.90;99.90;;;;;;5065089;28;20061;-79
2023/11/21 04:11:01;;;;;;;2.50;1.33;;;10.90;99.90;;;;;;5067753;28;20048;-79
2023/11/21 04:13:28;;;;;;;3.22;1.40;;;10.90;99.90;;;;;;5049798;28;20036;-80
2023/11/21 04:15:55;;;;;;;2.13;1.38;;;10.90;99.90;;;;;;5064409;28;20094;-78
2023/11/21 04:18:22;;;;;;;2.10;1.25;;;11.00;99.90;;;;;;5045526;28;20049;-80
2023/11/21 04:20:49;;;;;;;1.90;1.27;;;10.90;99.90;;;;;;5062779;28;20049;-78
2023/11/21 04:23:16;;;;;;;1.63;1.17;;;10.90;99.90;;;;;;5062247;28;20180;-78
2023/11/21 04:25:43;;;;;;;2.15;1.48;;;10.90;99.90;;;;;;5064541;28;20045;-79
2023/11/21 04:28:10;;;;;;;2.75;1.63;;;10.90;99.90;;;;;;5066487;28;20094;-79
2023/11/21 04:30:36;;;;;;;2.53;1.10;;;10.90;99.90;;;;;;5047644;28;20048;-78
2023/11/21 04:33:03;;;;;;;3.72;1.08;;;10.90;99.90;;;;;;5068223;28;20409;-78
2023/11/21 04:35:30;;;;;;;1.40;1.05;;;10.90;99.90;;;;;;5070095;28;20072;-78
2023/11/21 04:37:57;;;;;;;1.90;1.13;;;10.90;99.90;;;;;;5070033;28;20041;-79
2023/11/21 04:40:24;;;;;;;3.78;1.20;;;10.90;99.90;;;;;;5071740;28;20484;-78
2023/11/21 04:42:50;;;;;;;2.85;1.10;;;10.90;99.90;;;;;;5070337;28;20045;-79
2023/11/21 04:45:17;;;;;;;1.95;1.40;;;10.90;99.90;;;;;;5058420;28;20109;-79
2023/11/21 04:47:45;;;;;;;2.63;0.98;;;11.00;99.90;;;;;;4648051;22;20188;-67
2023/11/21 04:50:11;;;;;;;3.03;1.02;;;11.00;99.90;;;;;;5034328;28;20045;-69
2023/11/21 04:52:38;;;;;;;1.85;0.88;;;10.90;99.90;;;;;;5035719;28;20045;-67
2023/11/21 04:55:09;;;;;;;2.60;1.13;;;10.90;99.90;;;;;;5037549;28;20554;-68
2023/11/21 04:57:37;;;;;;;1.40;0.88;;;10.90;99.90;;;;;;5032058;28;20053;-67
2023/11/21 05:00:05;;;;;;;3.22;0.82;;;11.00;99.90;;;;;;5034294;28;20073;-68
2023/11/21 05:02:34;;;;;;;2.40;0.90;;;10.90;99.90;;;;;;5034950;28;20053;-68
2023/11/21 05:05:02;;;;;;;1.05;0.73;;;10.90;99.90;;;;;;5036192;28;20060;-67
2023/11/21 05:07:29;;;;;;;1.27;1.00;;;10.90;99.90;;;;;;5016080;28;20061;-68
2023/11/21 05:09:58;;;;;;;4.13;1.02;;;10.80;99.90;;;;;;5033269;28;20889;-67
2023/11/21 05:12:25;;;;;;;2.28;0.98;;;10.80;99.90;;;;;;5034390;28;20085;-66
2023/11/21 05:14:52;;;;;;;1.52;0.90;;;10.70;99.90;;;;;;5028707;28;20045;-69
2023/11/21 05:17:18;;;;;;;1.70;1.10;;;10.70;99.90;;;;;;5026070;28;20196;-67
2023/11/21 05:19:48;;;;;;;1.48;0.90;;;10.70;99.90;;;;;;5031459;28;20053;-66
2023/11/21 05:22:16;;;;;;;3.30;1.55;;;10.70;99.90;;;;;;5032148;28;20506;-66
2023/11/21 05:24:42;;;;;;;4.57;0.85;;;10.70;99.90;;;;;;5034090;28;20065;-66
2023/11/21 05:27:09;;;;;;;1.73;1.02;;;10.70;99.90;;;;;;5034525;28;20046;-66
2023/11/21 05:29:37;;;;;;;2.35;1.30;;;10.60;99.90;;;;;;5034310;28;20069;-67
2023/11/21 05:32:04;;;;;;;2.75;1.10;;;10.60;99.90;;;;;;5033851;28;20412;-67
2023/11/21 05:34:31;;;;;;;3.22;1.10;;;10.60;99.90;;;;;;5031660;28;20045;-66
2023/11/21 05:36:58;;;;;;;2.92;1.30;;;10.60;99.90;;;;;;5033836;28;20056;-67
2023/11/21 05:39:25;;;;;;;1.42;1.00;;;10.60;99.90;;;;;;5035758;28;20079;-67
2023/11/21 05:41:52;;;;;;;2.50;1.30;;;10.60;99.90;;;;;;5035937;28;20049;-66
2023/11/21 05:44:19;;;;;;;1.75;1.15;;;10.50;99.90;;;;;;5036291;28;20052;-67
2023/11/21 05:46:45;;;;;;;4.22;1.42;;;10.50;99.90;;;;;;5016167;28;20054;-65
2023/11/21 05:49:12;;;;;;;3.95;1.40;;;10.50;99.90;;;;;;5034203;28;20128;-67
2023/11/21 05:51:39;;;;;;;2.40;1.30;;;10.50;99.90;;;;;;5035307;28;20072;-67
2023/11/21 05:54:06;;;;;;;1.58;1.23;;;10.50;99.90;;;;;;5018085;28;20037;-68
2023/11/21 05:56:34;;;;;;;2.10;1.38;;;10.50;99.90;;;;;;5003352;28;20104;-68
2023/11/21 05:59:03;;;;;;;1.35;1.08;;;10.50;99.90;;;;;;5034239;28;20111;-66
2023/11/21 06:01:30;;;;;;;4.30;1.52;;;10.50;99.90;;;;;;5034418;28;20060;-67
2023/11/21 06:03:57;;;;;;;2.25;1.50;;;10.50;99.90;;;;;;5031843;28;20049;-67
2023/11/21 06:06:25;;;;;;;4.63;1.90;;;10.50;99.90;;;;;;5033222;28;20072;-66
2023/11/21 06:08:52;;;;;;;2.15;1.38;;;10.40;99.90;;;;;;5031632;28;20041;-66
2023/11/21 06:11:19;;;;;;;4.70;1.42;;;10.40;99.90;;;;;;5016659;28;20095;-65
2023/11/21 06:13:45;;;;;;;4.28;1.30;;;10.30;99.90;;;;;;5030795;28;20218;-67
2023/11/21 06:16:15;;;;;;;2.25;1.58;;;10.40;99.90;;;;;;5028536;28;20048;-68
2023/11/21 06:18:43;;;;;;;3.33;1.38;;;10.40;99.90;;;;;;5029551;28;20053;-66
2023/11/21 06:21:10;;;;;;;4.28;1.60;;;10.40;99.90;;;;;;5024266;28;20119;-65
2023/11/21 06:23:37;;;;;;;2.97;1.63;;;10.40;99.90;;;;;;5001916;28;20559;-66
2023/11/21 06:26:05;;;;;;;2.25;1.75;;;10.40;99.90;;;;;;5029417;28;20103;-66
2023/11/21 06:28:32;;;;;;;3.83;1.52;;;10.40;99.90;;;;;;5030093;28;20041;-67
2023/11/21 06:31:04;;;;;;;4.07;1.60;;;10.40;99.90;;;;;;5032686;28;20104;-67
2023/11/21 06:33:32;;;;;;;6.30;2.22;;;10.40;99.90;;;;;;5029717;28;20049;-66
2023/11/21 06:35:58;;;;;;;2.28;1.45;;;10.40;99.90;;;;;;5031567;28;20049;-66
2023/11/21 06:38:29;;;;;;;4.30;1.30;;;10.40;99.90;;;;;;5027016;28;20054;-66
2023/11/21 06:40:58;;;;;;;10.05;2.60;;;10.30;99.90;;;;;;5032810;28;20057;-66
2023/11/21 06:43:25;;;;;;;1.88;1.00;;;10.30;99.90;;;;;;5032243;28;20077;-68
2023/11/21 06:45:52;;;;;;;3.42;1.13;;;10.30;99.90;;;;;;5031539;28;20495;-68
2023/11/21 06:48:20;;;;;;;3.22;1.08;;;10.40;99.90;;;;;;5028987;28;20050;-65
2023/11/21 06:50:47;;;;;;;4.28;1.42;;;10.40;99.90;;;;;;5031246;28;20045;-66
2023/11/21 06:53:14;;;;;;;4.50;1.35;;;10.40;99.90;;;;;;5013492;28;20046;-68
2023/11/21 06:55:41;;;;;;;5.05;1.55;;;10.40;99.90;;;;;;5032002;28;20057;-68
2023/11/21 06:58:08;;;;;;;3.30;1.23;;;10.30;99.90;;;;;;5015247;28;20041;-66
2023/11/21 07:00:35;;;;;;;5.68;0.90;;;10.20;99.90;;;;;;5031235;28;20103;-66
2023/11/21 07:03:02;;;;;;;4.97;1.08;;;10.30;99.90;;;;;;4680758;28;10000076;-66
2023/11/21 07:05:29;;;;;;;3.60;0.98;;;10.20;99.90;;;;;;5027630;28;20091;-66
2023/11/21 07:07:56;;;;;;;4.93;1.25;;;10.20;99.90;;;;;;5029627;28;20045;-66
2023/11/21 07:10:22;;;;;;;5.55;1.10;;;10.20;99.90;;;;;;5028307;28;20140;-67
2023/11/21 07:12:51;;;;;;;6.68;1.20;;;10.10;99.90;;;;;;5028033;28;20107;-68
2023/11/21 07:15:19;;;;;;;2.42;1.35;;;10.20;99.90;;;;;;5021070;28;20056;-67
2023/11/21 07:17:48;;;;;;;7.53;1.25;;;10.20;99.90;;;;;;5017886;28;20049;-68
2023/11/21 07:20:16;;;;;;;2.80;1.27;;;10.10;99.90;;;;;;5024757;28;20041;-67
2023/11/21 07:22:43;;;;;;;8.25;1.08;;;10.10;99.90;;;;;;5032421;28;20041;-67
2023/11/21 07:25:10;;;;;;;1.85;1.00;;;10.10;99.90;;;;;;5023410;28;20707;-67
2023/11/21 07:27:37;;;;;;;4.40;1.20;;;10.10;99.90;;;;;;5027965;28;20325;-67
2023/11/21 07:30:05;;;;;;;3.10;0.88;;;10.10;99.90;;;;;;5022930;28;20211;-65
2023/11/21 07:32:32;;;;;;;3.30;1.33;;;10.00;99.90;;;;;;5031113;28;20057;-65
2023/11/21 07:35:01;;;;;;;7.10;1.40;;;10.00;99.90;;;;;;5023443;28;20053;-64
2023/11/21 07:37:28;;;;;;;3.70;1.58;;;10.00;99.90;;;;;;5022452;28;20125;-64
2023/11/21 07:39:56;;;;;;;4.78;1.88;;;10.00;99.90;;;;;;5036234;28;20057;-63
2023/11/21 07:42:24;;;;;;;5.32;1.35;;;9.90;99.90;;;;;;5030007;28;20103;-63
2023/11/21 07:44:51;;;;;;;4.13;1.30;;;9.90;99.90;;;;;;5027234;28;20404;-64
2023/11/21 07:47:18;;;;;;;7.53;1.67;;;9.90;99.90;;;;;;5024227;28;20045;-64
2023/11/21 07:49:46;;;;;;;2.80;1.27;;;9.90;99.90;;;;;;5025816;28;20048;-65
2023/11/21 07:52:15;;;;;;;1.73;1.20;;;9.90;99.90;;;;;;5012582;28;20045;-64
2023/11/21 07:54:43;;;;;;;3.78;1.67;;;10.00;99.90;;;;;;5023792;28;20044;-65
2023/11/21 07:57:13;;;;;;;5.03;1.48;;;9.90;99.90;;;;;;5025376;28;20392;-66
2023/11/21 07:59:40;;;;;;;3.17;1.60;;;9.90;99.90;;;;;;5022039;28;20050;-64
2023/11/21 08:02:07;;;;;;;3.38;1.35;;;9.90;99.90;;;;;;5031206;28;20500;-64
2023/11/21 08:04:35;;;;;;;3.42;2.63;;;10.00;99.90;;;;;;5027442;28;20103;-65
2023/11/21 08:07:03;;;;;;;3.58;1.90;;;9.90;99.90;;;;;;5011155;28;20050;-65
2023/11/21 08:09:30;;;;;;;6.63;1.63;;;9.90;99.90;;;;;;5021210;28;20375;-65
2023/11/21 08:11:57;;;;;;;3.85;1.98;;;9.80;99.90;;;;;;5029318;28;20087;-65
2023/11/21 08:14:25;;;;;;;3.72;2.28;;;9.90;99.90;;;;;;5028105;28;20061;-65
2023/11/21 08:16:52;;;;;;;3.17;1.88;;;9.80;99.90;;;;;;5026932;28;20463;-65
2023/11/21 08:19:19;;;;;;;9.80;2.42;;;9.80;99.90;;;;;;5023001;28;20046;-66
2023/11/21 08:21:46;;;;;;;5.18;2.20;;;9.90;99.90;;;;;;5023315;28;20113;-65
2023/11/21 08:24:12;;;;;;;5.53;1.95;;;9.90;99.90;;;;;;5025025;28;20073;-65
2023/11/21 08:26:39;;;;;;;5.25;2.22;;;9.90;99.90;;;;;;5013691;28;20049;-65
2023/11/21 08:29:07;;;;;;;6.10;2.22;;;10.00;99.90;;;;;;5026728;28;20042;-66
2023/11/21 08:31:34;;;;;;;3.97;2.10;;;10.00;99.90;;;;;;5024033;28;20296;-68
2023/11/21 08:34:02;;;;;;;7.03;2.08;;;9.90;99.90;;;;;;5025249;28;20565;-66
2023/11/21 08:36:31;;;;;;;4.28;2.25;;;9.90;99.90;;;;;;5014917;28;20116;-66
2023/11/21 08:38:58;;;;;;;4.47;2.10;;;9.90;99.90;;;;;;5025112;28;20522;-67
2023/11/21 08:41:27;;;;;;;4.15;2.05;;;9.90;99.90;;;;;;5026747;28;20524;-67
2023/11/21 08:43:55;;;;;;;4.38;1.80;;;10.00;99.90;;;;;;5027417;28;20412;-67
2023/11/21 08:46:22;;;;;;;2.58;1.70;;;10.00;99.90;;;;;;5023576;28;20105;-66
2023/11/21 08:48:52;;;;;;;6.07;2.10;;;10.00;99.90;;;;;;5027934;28;20062;-68
2023/11/21 08:51:19;;;;;;;4.55;1.95;;;10.00;99.90;;;;;;5006897;28;20046;-66
2023/11/21 08:53:46;;;;;;;3.28;1.83;;;10.00;99.90;;;;;;5020900;28;20053;-66
2023/11/21 08:56:15;;;;;;;3.17;1.88;;;10.00;99.90;;;;;;5000765;28;20041;-66
2023/11/21 08:58:42;;;;;;;3.25;1.70;;;10.00;99.90;;;;;;5026306;28;20045;-65
2023/11/21 09:01:10;;;;;;;2.47;1.48;;;10.00;99.90;;;;;;5029783;28;20136;-69
2023/11/21 09:03:37;;;;;;;6.50;1.90;;;10.00;99.90;;;;;;5012982;28;20132;-66
2023/11/21 09:06:05;;;;;;;5.15;1.63;;;9.90;99.90;;;;;;4677257;28;10000376;-66
2023/11/21 09:08:32;;;;;;;7.15;3.25;;;10.00;99.90;;;;;;5029584;28;20048;-68
2023/11/21 09:10:58;;;;;;;4.22;1.33;;;10.10;99.90;;;;;;5009561;28;20471;-67
2023/11/21 09:13:25;;;;;;;2.25;1.27;;;10.00;99.90;;;;;;5028658;28;20045;-66
2023/11/21 09:15:52;;;;;;;3.30;1.60;;;10.10;99.90;;;;;;5029453;28;20079;-66
2023/11/21 09:18:19;;;;;;;4.97;1.83;;;10.10;99.90;;;;;;5024430;28;20115;-66
2023/11/21 09:20:46;;;;;;;3.25;1.55;;;10.00;99.90;;;;;;5031277;28;20137;-66
2023/11/21 09:23:13;;;;;;;3.10;1.52;;;10.00;99.90;;;;;;5030631;28;20050;-67
2023/11/21 09:25:40;;;;;;;3.85;1.83;;;10.00;99.90;;;;;;5033542;28;20307;-66
2023/11/21 09:28:09;;;;;;;2.85;1.52;;;10.10;99.90;;;;;;5032843;28;20041;-68
2023/11/21 09:30:36;;;;;;;4.43;1.60;;;10.00;99.90;;;;;;5027775;28;20041;-66
2023/11/21 09:33:05;;;;;;;8.60;1.58;;;10.10;99.90;;;;;;5027235;28;20062;-66
2023/11/21 09:35:32;;;;;;;6.90;2.67;;;10.10;99.90;;;;;;5030192;28;20042;-66
2023/11/21 09:38:01;;;;;;;2.10;1.25;;;10.10;99.90;;;;;;5030745;28;20132;-66
2023/11/21 09:40:28;;;;;;;4.00;1.13;;;10.20;99.90;;;;;;5033335;28;20115;-66
2023/11/21 09:42:59;;;;;;;2.80;1.40;;;10.20;99.90;;;;;;4999016;28;20049;-66
2023/11/21 09:45:34;;;;;;;4.07;1.17;;;10.20;99.90;;;;;;5023439;28;20046;-66
2023/11/21 09:48:01;;;;;;;5.72;1.65;;;10.30;99.90;;;;;;5005948;28;20060;-67
2023/11/21 09:50:28;;;;;;;2.50;1.40;;;10.30;99.90;;;;;;5026318;28;20046;-66
2023/11/21 09:53:00;;;;;;;5.38;1.58;;;10.30;99.90;;;;;;5029014;28;20100;-66
2023/11/21 09:55:29;;;;;;;2.45;1.02;;;10.30;99.90;;;;;;5005726;28;20049;-67
2023/11/21 09:57:56;;;;;;;1.75;1.27;;;10.30;99.90;;;;;;5027896;28;20050;-66
2023/11/21 10:00:23;;;;;;;3.42;1.10;;;10.30;99.90;;;;;;5024876;28;20049;-66
2023/11/21 10:02:50;;;;;;;4.00;1.38;;;10.30;99.90;;;;;;5010267;28;20045;-66
2023/11/21 10:05:17;;;;;;;4.07;1.50;;;10.40;99.90;;;;;;4999161;28;20104;-67
2023/11/21 10:07:47;;;;;;;4.82;1.50;;;10.40;99.90;;;;;;5009644;28;20046;-66
2023/11/21 10:10:14;;;;;;;3.17;0.98;;;10.50;99.90;;;;;;5019891;28;20455;-67
2023/11/21 10:12:41;;;;;;;2.05;1.10;;;10.40;99.90;;;;;;5013555;28;20076;-66
2023/11/21 10:15:08;;;;;;;1.98;0.90;;;10.50;99.90;;;;;;5014636;28;20492;-67
2023/11/21 10:17:42;;;;;;;2.25;1.23;;;10.50;99.90;;;;;;5032733;28;20045;-67
2023/11/21 10:20:13;;;;;;;3.35;0.93;;;10.60;99.90;;;;;;5011039;28;20049;-66
2023/11/21 10:22:43;;;;;;;5.65;1.42;;;10.60;99.90;;;;;;5030108;28;20497;-67
2023/11/21 10:25:10;;;;;;;2.08;1.10;;;10.60;99.90;;;;;;5031708;28;20407;-67
2023/11/21 10:27:40;;;;;;;3.95;1.10;;;10.70;99.90;;;;;;5029804;28;20074;-67
2023/11/21 10:30:11;;;;;;;2.60;1.20;;;10.70;99.90;;;;;;4999828;28;20042;-65
2023/11/21 10:32:40;;;;;;;1.55;0.93;;;10.70;99.90;;;;;;5030219;28;20049;-65
2023/11/21 10:35:10;;;;;;;5.18;0.98;;;10.80;99.90;;;;;;5030415;28;20503;-65
2023/11/21 10:37:40;;;;;;;3.33;0.95;;;10.80;99.90;;;;;;5028422;28;20276;-65
2023/11/21 10:40:11;;;;;;;2.20;0.88;;;10.80;99.90;;;;;;5034608;28;20041;-66
2023/11/21 10:42:40;;;;;;;1.77;1.08;;;10.80;99.90;;;;;;5030949;28;20510;-65
2023/11/21 10:45:13;;;;;;;2.00;1.00;;;10.80;99.90;;;;;;5013856;28;20438;-66
2023/11/21 10:47:44;;;;;;;1.73;1.00;;;10.80;99.90;;;;;;5029273;28;20502;-65
2023/11/21 10:50:11;;;;;;;3.30;1.10;;;10.80;99.90;;;;;;5029215;28;20052;-65
2023/11/21 10:52:47;;;;;;;2.17;1.10;;;10.90;99.90;;;;;;5004687;28;20049;-65
2023/11/21 10:55:19;;;;;;;2.22;0.98;;;10.90;99.90;;;;;;5027285;28;20049;-65
2023/11/21 10:57:48;;;;;;;2.67;1.13;;;10.90;99.90;;;;;;5029077;28;20088;-64
2023/11/21 11:00:16;;;;;;;2.10;0.80;;;10.90;99.90;;;;;;5029510;28;20110;-65
2023/11/21 11:02:43;;;;;;;3.65;0.73;;;10.80;99.90;;;;;;5010763;28;20566;-66
2023/11/21 11:05:11;;;;;;;2.85;0.77;;;10.90;99.90;;;;;;5011659;28;20049;-66
2023/11/21 11:07:38;;;;;;;2.40;1.10;;;10.90;99.90;;;;;;5011659;28;20045;-66
2023/11/21 11:10:08;;;;;;;3.65;1.30;;;11.00;99.90;;;;;;5008842;28;20037;-65
2023/11/21 11:12:35;;;;;;;2.25;0.88;;;11.10;99.90;;;;;;5028290;28;20104;-66
2023/11/21 11:15:04;;;;;;;2.05;1.15;;;11.10;99.90;;;;;;5011520;28;20484;-66
2023/11/21 11:17:33;;;;;;;0.95;0.70;;;11.20;99.90;;;;;;5011193;28;20542;-64
2023/11/21 11:20:00;;;;;;;1.10;0.73;;;11.20;99.90;;;;;;5005816;28;20046;-67
2023/11/21 11:22:40;;;;;;;3.22;1.02;;;11.10;99.90;;;;;;5028737;28;20046;-65
2023/11/21 11:25:38;;;;;;;1.70;1.00;;;11.10;99.90;;;;;;5011274;28;20052;-66
2023/11/21 11:28:11;;;;;;;4.97;1.05;;;11.10;99.90;;;;;;5007621;28;20052;-65
2023/11/21 11:31:08;;;;;;;2.13;1.15;;;11.20;99.90;;;;;;4990788;28;20056;-65
2023/11/21 11:33:48;;;;;;;1.67;1.23;;;11.20;99.90;;;;;;5013398;28;20048;-66
2023/11/21 11:36:37;;;;;;;1.70;0.98;;;11.30;99.90;;;;;;5010727;28;20049;-66
2023/11/21 11:39:30;;;;;;;1.10;0.80;;;11.30;99.90;;;;;;5003234;28;20068;-65
2023/11/21 11:42:01;;;;;;;1.98;0.90;;;11.30;99.90;;;;;;4996201;28;20049;-66
2023/11/21 11:44:57;;;;;;;0.82;0.65;;;11.30;99.90;;;;;;5020608;28;20042;-66
2023/11/21 11:47:38;;;;;;;2.15;1.05;;;11.30;99.90;;;;;;5020428;28;20057;-66
2023/11/21 11:50:17;;;;;;;1.10;0.65;;;11.30;99.90;;;;;;5022893;28;20046;-66
2023/11/21 11:52:46;;;;;;;5.43;1.15;;;11.40;99.90;;;;;;5019133;28;20103;-66
2023/11/21 11:55:13;;;;;;;3.92;1.00;;;11.40;99.90;;;;;;5027935;28;20093;-66
2023/11/21 11:57:41;;;;;;;3.42;0.70;;;11.40;99.90;;;;;;5028087;28;20077;-64
2023/11/21 12:00:12;;;;;;;1.75;0.98;;;11.40;99.90;;;;;;5028513;28;20053;-65
2023/11/21 12:02:39;;;;;;;9.13;2.58;;;11.40;99.90;;;;;;5030753;28;20099;-65
2023/11/21 12:05:13;;;;;;;3.33;1.05;;;11.40;99.90;;;;;;5013187;28;20042;-64
2023/11/21 12:07:47;;;;;;;8.65;1.20;;;11.40;99.90;;;;;;5025004;28;20046;-65
2023/11/21 12:10:19;;;;;;;1.55;1.10;;;11.40;99.90;;;;;;5027445;28;20087;-65
2023/11/21 12:12:50;;;;;;;2.05;0.93;;;11.40;99.90;;;;;;5024784;28;20072;-64
2023/11/21 12:15:16;;;;;;;8.13;2.10;;;11.40;99.90;;;;;;5001213;28;20045;-66
2023/11/21 12:17:43;;;;;;;2.03;1.02;;;11.40;99.90;;;;;;5027824;28;20099;-66
2023/11/21 12:20:15;;;;;;;1.95;1.10;;;11.40;99.90;;;;;;5027962;28;20104;-66
2023/11/21 12:22:47;;;;;;;2.17;1.53;;;11.40;99.90;;;;;;5027481;28;20049;-66
2023/11/21 12:25:18;;;;;;;4.43;1.10;;;11.50;99.90;;;;;;5024961;28;20286;-65
2023/11/21 12:27:46;;;;;;;3.65;1.40;;;11.50;99.90;;;;;;5027988;28;20369;-66
2023/11/21 12:30:13;;;;;;;6.80;1.88;;;11.50;99.90;;;;;;5027898;28;20046;-65
2023/11/21 12:32:41;;;;;;;2.10;1.20;;;11.50;99.90;;;;;;5027826;28;20053;-66
2023/11/21 12:35:09;;;;;;;2.53;1.30;;;11.50;99.90;;;;;;5027763;28;20045;-66
2023/11/21 12:37:40;;;;;;;4.20;1.30;;;11.50;99.90;;;;;;5009272;28;20042;-66
2023/11/21 12:40:11;;;;;;;12.32;10.00;;;11.50;99.90;;;;;;5009867;28;20519;-65
2023/11/21 12:42:39;;;;;;;2.40;1.83;;;11.60;99.90;;;;;;5025221;28;20054;-66
2023/11/21 12:45:18;;;;;;;3.17;1.63;;;11.50;99.90;;;;;;5028048;28;20049;-68
2023/11/21 12:47:44;;;;;;;2.28;1.33;;;11.60;99.90;;;;;;5026070;28;20057;-66
2023/11/21 12:50:14;;;;;;;2.35;1.40;;;11.60;99.90;;;;;;5021268;28;20042;-66
2023/11/21 12:52:47;;;;;;;3.35;1.63;;;11.60;99.90;;;;;;5009263;28;20056;-66
2023/11/21 12:55:16;;;;;;;1.90;1.52;;;11.60;99.90;;;;;;5027844;28;20107;-68